Canal Services 16 — YQPB — position and weather

sailwx.info

Track history (hours):
 
Tides and Currents Weather Stations Pressure Air Temp Water Temp Dewpoint Dewpoint Depression Visibility Wind Speed Wind Dir Waves Ship Positions

Canal Services 16

Last reported at 2018-Jun-16 07:41 UTC. Time now 2018-Jun-21 06:53 UTC.
Position N 44°09' E 028°40'.

Length 31 m.

Type: Tug. MMSI: 264900334.

Date/timePositionNaut miles runAvg speedWind from/ knotsBaromVisibWave heightAir tempDewpointWater temp
2018-Jun-16 07:41N 44°09' E 028°40'0 0.0
2018-Jun-16 07:29N 44°09' E 028°40'0 0.0
2018-Jun-16 06:59N 44°09' E 028°40'0 0.0
2018-Jun-16 06:29N 44°09' E 028°40'0 0.0
2018-Jun-16 05:59N 44°09' E 028°40'0 0.0
2018-Jun-16 05:29N 44°09' E 028°40'0 0.0
2018-Jun-16 04:59N 44°09' E 028°40'0 0.0
2018-Jun-16 04:29N 44°09' E 028°40'0 0.0
2018-Jun-16 03:59N 44°09' E 028°40'0 0.0
2018-Jun-16 03:29N 44°09' E 028°40'0 0.0
2018-Jun-16 02:59N 44°09' E 028°40'0 0.0
2018-Jun-16 02:29N 44°09' E 028°40'0 0.0
2018-Jun-16 01:59N 44°09' E 028°40'0 0.0
2018-Jun-16 01:29N 44°09' E 028°40'0 0.0
2018-Jun-16 00:59N 44°09' E 028°40'0 0.0
2018-Jun-16 00:29N 44°09' E 028°40'0 0.0
2018-Jun-15 23:56N 44°09' E 028°40'0 0.0
2018-Jun-15 23:29N 44°09' E 028°40'0 0.0
2018-Jun-15 22:59N 44°09' E 028°40'0 0.0
2018-Jun-15 22:29N 44°09' E 028°40'0 0.0
2018-Jun-15 21:59N 44°09' E 028°40'0 0.0
2018-Jun-15 21:29N 44°09' E 028°40'0 0.0
2018-Jun-15 20:59N 44°09' E 028°40'0 0.0
2018-Jun-15 20:29N 44°09' E 028°40'0 0.0
2018-Jun-15 19:59N 44°09' E 028°40'1 1.3
2018-Jun-15 19:30N 44°09' E 028°40'4 8.3
2018-Jun-15 19:00N 44°06' E 028°45'5 9.3
2018-Jun-15 18:30N 44°07' E 028°51'5 9.5
2018-Jun-15 17:56N 44°08' E 028°58'4 9.8
2018-Jun-15 17:30N 44°09' E 029°04'5 9.9
2018-Jun-15 17:00N 44°10' E 029°11'5 9.9
2018-Jun-15 16:30N 44°11' E 029°18'510.2
2018-Jun-15 15:59N 44°13' E 029°25'510.9
2018-Jun-15 15:30N 44°14' E 029°32'611.0
2018-Jun-15 15:00N 44°16' E 029°39'610.7
2018-Jun-15 14:27N 44°17' E 029°47'510.9
2018-Jun-15 14:00N 44°18' E 029°54'23 2.1
2018-Jun-15 02:57N 44°20' E 030°25'0 0.5
2018-Jun-15 02:30N 44°20' E 030°26'0 0.8
2018-Jun-15 02:00N 44°21' E 030°26'5 3.5
2018-Jun-15 00:31N 44°20' E 030°19'0 4.1
2018-Jun-15 00:29N 44°20' E 030°19'3 4.8
2018-Jun-14 23:49N 44°19' E 030°14'1 4.1
2018-Jun-14 23:28N 44°18' E 030°12'3 5.3
2018-Jun-14 22:58N 44°18' E 030°09'11 5.1
2018-Jun-14 20:44N 44°16' E 029°53'4 9.3
2018-Jun-14 20:16N 44°15' E 029°47'6 9.3
2018-Jun-14 19:38N 44°13' E 029°40'1 9.4
2018-Jun-14 19:30N 44°12' E 029°38'3735.2
2018-Jun-14 18:27N 44°06' E 028°47'613.1
2018-Jun-14 18:00N 44°09' E 028°40'0 0.0
2018-Jun-14 17:15N 44°09' E 028°40'0 0.0
2018-Jun-14 16:57N 44°09' E 028°40'0 0.0
2018-Jun-14 16:18N 44°09' E 028°40'0 0.0
2018-Jun-14 15:58N 44°09' E 028°40'0 0.0
2018-Jun-14 15:11N 44°09' E 028°40'0 0.0
2018-Jun-14 14:54N 44°09' E 028°40'0 0.0
2018-Jun-14 14:14N 44°09' E 028°40'0 0.0
2018-Jun-14 13:55N 44°09' E 028°40'0 0.0
2018-Jun-14 13:12N 44°09' E 028°40'0 0.0
2018-Jun-14 13:00N 44°09' E 028°40'0 0.0
2018-Jun-14 12:30N 44°09' E 028°40'0 0.0
2018-Jun-14 12:00N 44°09' E 028°40'0 0.0
2018-Jun-14 11:30N 44°09' E 028°40'0 0.0
2018-Jun-14 11:00N 44°09' E 028°40'0 0.0
2018-Jun-14 10:30N 44°09' E 028°40'0 0.0
2018-Jun-14 10:00N 44°09' E 028°40'0 0.0
2018-Jun-14 09:30N 44°09' E 028°40'0 0.0
2018-Jun-14 09:00N 44°09' E 028°40'0 0.0
2018-Jun-14 08:30N 44°09' E 028°40'0 0.0
2018-Jun-14 08:00N 44°09' E 028°40'0 0.0
2018-Jun-14 07:30N 44°09' E 028°40'0 0.0
2018-Jun-14 07:00N 44°09' E 028°40'0 0.0
2018-Jun-14 06:27N 44°09' E 028°40'0 0.0
2018-Jun-14 06:00N 44°09' E 028°40'0 0.0
2018-Jun-14 05:30N 44°09' E 028°40'0 0.0
2018-Jun-14 04:57N 44°09' E 028°40'0 0.0
2018-Jun-14 04:30N 44°09' E 028°40'0 0.0
2018-Jun-14 04:00N 44°09' E 028°40'0 0.0
2018-Jun-14 03:30N 44°09' E 028°40'0 0.0
2018-Jun-14 03:00N 44°09' E 028°40'0 0.0
2018-Jun-14 02:30N 44°09' E 028°40'0 0.0
2018-Jun-14 02:00N 44°09' E 028°40'0 0.0
2018-Jun-14 01:30N 44°09' E 028°40'0 0.0
2018-Jun-14 01:00N 44°09' E 028°40'0 0.1
2018-Jun-14 00:30N 44°09' E 028°40'1 1.9
2018-Jun-13 23:59N 44°09' E 028°39'1 1.2
2018-Jun-13 23:30N 44°09' E 028°40'0 0.8
2018-Jun-13 22:59N 44°09' E 028°40'0 0.0
2018-Jun-13 22:29N 44°09' E 028°40'0 0.0
2018-Jun-13 21:59N 44°09' E 028°40'0 0.0
2018-Jun-13 21:29N 44°09' E 028°40'0 0.0
2018-Jun-13 20:56N 44°09' E 028°40'0 0.0
2018-Jun-13 20:29N 44°09' E 028°40'0 0.0
2018-Jun-13 19:59N 44°09' E 028°40'0 0.0
2018-Jun-13 19:29N 44°09' E 028°40'0 0.0
2018-Jun-13 18:59N 44°09' E 028°40'0 0.0
2018-Jun-13 18:29N 44°09' E 028°40'0 0.0
2018-Jun-13 17:59N 44°09' E 028°40'0 0.0
2018-Jun-13 17:29N 44°09' E 028°40'0 0.0
2018-Jun-13 16:59N 44°09' E 028°40'0 0.0
2018-Jun-13 16:20N 44°09' E 028°40'1 2.4
2018-Jun-13 16:00N 44°10' E 028°39'0 0.4
2018-Jun-13 15:29N 44°10' E 028°39'1 1.6
2018-Jun-13 14:59N 44°09' E 028°40'0 0.0
2018-Jun-13 14:29N 44°09' E 028°40'0 0.0
2018-Jun-13 13:59N 44°09' E 028°40'0 0.0
2018-Jun-13 13:29N 44°09' E 028°40'0 0.0
2018-Jun-13 12:59N 44°09' E 028°40'0 0.0
2018-Jun-13 12:29N 44°09' E 028°40'0 0.0
2018-Jun-13 11:59N 44°09' E 028°40'0 1.0
2018-Jun-13 11:30N 44°09' E 028°40'0 0.5
2018-Jun-13 11:00N 44°09' E 028°39'2 3.2
2018-Jun-13 10:30N 44°08' E 028°40'1 2.0
2018-Jun-13 09:59N 44°09' E 028°40'0 0.0
2018-Jun-13 09:29N 44°09' E 028°40'0 0.0
2018-Jun-13 08:59N 44°09' E 028°40'0 0.0
2018-Jun-13 08:29N 44°09' E 028°40'0 0.0
2018-Jun-13 07:59N 44°09' E 028°40'0 0.0
2018-Jun-13 07:29N 44°09' E 028°40'0 0.0
2018-Jun-13 06:59N 44°09' E 028°40'0 0.0
2018-Jun-13 06:29N 44°09' E 028°40'0 0.0
2018-Jun-13 05:44N 44°09' E 028°40'0 0.0
2018-Jun-13 05:14N 44°09' E 028°40'0 0.0
2018-Jun-13 04:59N 44°09' E 028°40'0 0.0
2018-Jun-13 04:29N 44°09' E 028°40'0 0.0
2018-Jun-13 03:59N 44°09' E 028°40'0 0.0
2018-Jun-13 03:29N 44°09' E 028°40'0 0.0
2018-Jun-13 02:59N 44°09' E 028°40'0 0.0
2018-Jun-13 02:29N 44°09' E 028°40'0 0.0
2018-Jun-13 01:59N 44°09' E 028°40'0 0.0
2018-Jun-13 01:26N 44°09' E 028°40'0 0.0
2018-Jun-13 00:59N 44°09' E 028°40'0 0.0
2018-Jun-13 00:29N 44°09' E 028°40'0 0.0
2018-Jun-12 23:59N 44°09' E 028°40'0 0.0
2018-Jun-12 23:29N 44°09' E 028°40'0 0.0
2018-Jun-12 22:59N 44°09' E 028°40'0 0.0
2018-Jun-12 22:29N 44°09' E 028°40'0 0.0
2018-Jun-12 21:59N 44°09' E 028°40'0 0.0
2018-Jun-12 21:29N 44°09' E 028°40'0 0.0
2018-Jun-12 20:59N 44°09' E 028°40'0 0.0
2018-Jun-12 20:29N 44°09' E 028°40'0 0.0
2018-Jun-12 19:59N 44°09' E 028°40'0 0.0
2018-Jun-12 19:29N 44°09' E 028°40'0 0.0
2018-Jun-12 18:59N 44°09' E 028°40'0 0.0
2018-Jun-12 18:29N 44°09' E 028°40'0 0.0
2018-Jun-12 17:50N 44°09' E 028°40'0 0.0
2018-Jun-12 17:14N 44°09' E 028°40'1 3.2
2018-Jun-12 16:55N 44°09' E 028°39'0 0.4
2018-Jun-12 16:29N 44°09' E 028°39'1 1.8
2018-Jun-12 16:00N 44°09' E 028°40'0 0.9
2018-Jun-12 15:28N 44°09' E 028°40'0 0.0
2018-Jun-12 14:58N 44°09' E 028°40'0 0.0
2018-Jun-12 14:28N 44°09' E 028°40'0 0.0
2018-Jun-12 13:58N 44°09' E 028°40'0 0.0
2018-Jun-12 13:25N 44°09' E 028°40'0 0.0
2018-Jun-12 12:52N 44°09' E 028°40'0 0.0
2018-Jun-12 12:25N 44°09' E 028°40'0 0.0
2018-Jun-12 11:58N 44°09' E 028°40'0 0.0
2018-Jun-12 11:28N 44°09' E 028°40'0 0.0
2018-Jun-12 10:58N 44°09' E 028°40'0 0.0
2018-Jun-12 10:28N 44°09' E 028°40'0 0.0
2018-Jun-12 09:58N 44°09' E 028°40'0 0.0
2018-Jun-12 09:25N 44°09' E 028°40'0 0.0
2018-Jun-12 08:55N 44°09' E 028°40'0 0.0
2018-Jun-12 08:28N 44°09' E 028°40'0 0.0
2018-Jun-12 07:58N 44°09' E 028°40'0 0.0
2018-Jun-12 07:28N 44°09' E 028°40'3 5.9
2018-Jun-12 07:00N 44°07' E 028°40'1 1.8
2018-Jun-12 06:28N 44°07' E 028°39'0 0.0
2018-Jun-12 05:58N 44°07' E 028°39'2 3.7
2018-Jun-12 05:30N 44°08' E 028°41'2 3.5
2018-Jun-12 04:59N 44°09' E 028°40'0 0.0
2018-Jun-12 04:29N 44°09' E 028°40'0 0.0
2018-Jun-12 03:59N 44°09' E 028°40'0 0.0
2018-Jun-12 03:29N 44°09' E 028°40'0 0.0
2018-Jun-12 02:59N 44°09' E 028°40'0 0.0
2018-Jun-12 02:26N 44°09' E 028°40'0 0.0
2018-Jun-12 01:59N 44°09' E 028°40'0 0.0
2018-Jun-12 01:26N 44°09' E 028°40'0 0.0
2018-Jun-12 01:00N 44°09' E 028°40'0 0.0
2018-Jun-12 00:29N 44°09' E 028°40'0 0.0
2018-Jun-11 23:59N 44°09' E 028°40'0 0.0
2018-Jun-11 23:29N 44°09' E 028°40'0 0.0
2018-Jun-11 22:59N 44°09' E 028°40'0 0.0
2018-Jun-11 22:29N 44°09' E 028°40'0 0.0
2018-Jun-11 21:59N 44°09' E 028°40'0 0.0
2018-Jun-11 21:23N 44°09' E 028°40'0 0.0
2018-Jun-11 21:00N 44°09' E 028°40'0 0.0
2018-Jun-11 20:29N 44°09' E 028°40'0 0.0
2018-Jun-11 19:59N 44°09' E 028°40'0 0.0
2018-Jun-11 19:29N 44°09' E 028°40'0 0.0
2018-Jun-11 18:59N 44°09' E 028°40'1 1.1
2018-Jun-11 18:27N 44°09' E 028°40'0 0.1
2018-Jun-11 18:00N 44°09' E 028°40'1 1.2
2018-Jun-11 17:30N 44°09' E 028°40'0 0.0
2018-Jun-11 17:00N 44°09' E 028°40'0 0.0
2018-Jun-11 16:30N 44°09' E 028°40'0 0.0
2018-Jun-11 16:00N 44°09' E 028°40'0 0.0
2018-Jun-11 15:30N 44°09' E 028°40'0 0.0
2018-Jun-11 15:00N 44°09' E 028°40'0 0.0
2018-Jun-11 14:24N 44°09' E 028°40'0 0.0
2018-Jun-11 14:00N 44°09' E 028°40'0 0.0
2018-Jun-11 13:30N 44°09' E 028°40'0 0.0
2018-Jun-11 13:00N 44°09' E 028°40'0 0.0
2018-Jun-11 12:30N 44°09' E 028°40'0 0.0
2018-Jun-11 11:57N 44°09' E 028°40'0 0.0
2018-Jun-11 11:30N 44°09' E 028°40'0 0.0
2018-Jun-11 11:00N 44°09' E 028°40'0 0.0
2018-Jun-11 10:30N 44°09' E 028°40'0 0.0
2018-Jun-11 10:00N 44°09' E 028°40'0 0.0
2018-Jun-11 09:30N 44°09' E 028°40'0 0.0
2018-Jun-11 09:00N 44°09' E 028°40'0 0.0
2018-Jun-11 08:27N 44°09' E 028°40'0 0.0
2018-Jun-11 08:00N 44°09' E 028°40'0 0.0
2018-Jun-11 07:30N 44°09' E 028°40'0 0.0
2018-Jun-11 07:00N 44°09' E 028°40'0 0.0
2018-Jun-11 06:30N 44°09' E 028°40'0 0.0
2018-Jun-11 06:00N 44°09' E 028°40'0 0.0
2018-Jun-11 05:30N 44°09' E 028°40'0 0.0
2018-Jun-11 05:00N 44°09' E 028°40'0 0.0
2018-Jun-11 04:30N 44°09' E 028°40'0 0.0
2018-Jun-11 04:00N 44°09' E 028°40'0 0.0
2018-Jun-11 03:30N 44°09' E 028°40'0 0.0
2018-Jun-11 03:00N 44°09' E 028°40'0 0.0
2018-Jun-11 02:30N 44°09' E 028°40'0 0.0
2018-Jun-11 02:00N 44°09' E 028°40'0 0.0
2018-Jun-11 01:30N 44°09' E 028°40'0 0.0
2018-Jun-11 01:00N 44°09' E 028°40'0 0.0
2018-Jun-11 00:27N 44°09' E 028°40'0 0.0
2018-Jun-11 00:00N 44°09' E 028°40'0 0.0
2018-Jun-10 23:30N 44°09' E 028°40'0 0.0
2018-Jun-10 23:00N 44°09' E 028°40'0 0.0
2018-Jun-10 22:30N 44°09' E 028°40'0 0.0
2018-Jun-10 22:00N 44°09' E 028°40'0 0.0
2018-Jun-10 21:27N 44°09' E 028°40'0 0.0
2018-Jun-10 21:00N 44°09' E 028°40'0 0.0
2018-Jun-10 20:30N 44°09' E 028°40'0 0.0
2018-Jun-10 20:00N 44°09' E 028°40'0 0.0
2018-Jun-10 19:30N 44°09' E 028°40'0 0.0
2018-Jun-10 19:00N 44°09' E 028°40'0 0.0
2018-Jun-10 18:30N 44°09' E 028°40'0 0.0
2018-Jun-10 18:00N 44°09' E 028°40'0 0.0
2018-Jun-10 17:30N 44°09' E 028°40'0 0.0
2018-Jun-10 17:00N 44°09' E 028°40'0 0.0
2018-Jun-10 16:30N 44°09' E 028°40'0 0.0
2018-Jun-10 16:00N 44°09' E 028°40'0 0.0
2018-Jun-10 15:30N 44°09' E 028°40'0 0.0
2018-Jun-10 14:57N 44°09' E 028°40'0 0.0
2018-Jun-10 14:30N 44°09' E 028°40'0 0.0
2018-Jun-10 13:30N 44°09' E 028°40'0 0.0
2018-Jun-10 12:57N 44°09' E 028°40'0 0.0
2018-Jun-10 12:21N 44°09' E 028°40'0 0.0
2018-Jun-10 12:00N 44°09' E 028°40'0 0.0
2018-Jun-10 11:24N 44°09' E 028°40'0 0.0
2018-Jun-10 10:57N 44°09' E 028°40'0 0.0
2018-Jun-10 10:27N 44°09' E 028°40'0 0.0
2018-Jun-10 10:00N 44°09' E 028°40'0 0.0
2018-Jun-10 09:30N 44°09' E 028°40'0 0.0
2018-Jun-10 09:00N 44°09' E 028°40'0 0.0
2018-Jun-10 08:30N 44°09' E 028°40'0 0.0
2018-Jun-10 08:00N 44°09' E 028°40'0 0.0
2018-Jun-10 07:30N 44°09' E 028°40'0 0.0
2018-Jun-10 07:00N 44°09' E 028°40'0 0.0
2018-Jun-10 06:30N 44°09' E 028°40'0 0.0
2018-Jun-10 06:00N 44°09' E 028°40'0 0.8
2018-Jun-10 05:30N 44°09' E 028°40'0 0.3
2018-Jun-10 04:59N 44°09' E 028°40'0 0.1
2018-Jun-10 04:29N 44°09' E 028°40'0 0.8
2018-Jun-10 03:59N 44°08' E 028°40'1 1.0
2018-Jun-10 03:29N 44°08' E 028°41'0 0.2
2018-Jun-10 03:00N 44°08' E 028°41'1 2.6
2018-Jun-10 02:30N 44°09' E 028°40'0 0.0
2018-Jun-10 02:00N 44°09' E 028°40'0 0.0
2018-Jun-10 01:30N 44°09' E 028°40'0 0.0
2018-Jun-10 01:00N 44°09' E 028°40'0 0.0
2018-Jun-10 00:30N 44°09' E 028°40'0 0.0
2018-Jun-10 00:00N 44°09' E 028°40'0 0.0
2018-Jun-09 23:30N 44°09' E 028°40'0 0.0
2018-Jun-09 23:00N 44°09' E 028°40'0 0.0
2018-Jun-09 22:30N 44°09' E 028°40'0 0.0
2018-Jun-09 22:00N 44°09' E 028°40'0 0.0
2018-Jun-09 21:30N 44°09' E 028°40'0 0.0
2018-Jun-09 21:00N 44°09' E 028°40'0 0.0
2018-Jun-09 20:30N 44°09' E 028°40'0 0.0
2018-Jun-09 20:00N 44°09' E 028°40'0 0.0
2018-Jun-09 19:30N 44°09' E 028°40'0 0.0
2018-Jun-09 19:00N 44°09' E 028°40'0 0.0
2018-Jun-09 18:30N 44°09' E 028°40'0 0.0
2018-Jun-09 18:00N 44°09' E 028°40'0 0.0
2018-Jun-09 17:30N 44°09' E 028°40'0 0.0
2018-Jun-09 17:00N 44°09' E 028°40'0 0.0
2018-Jun-09 16:27N 44°09' E 028°40'0 0.0
2018-Jun-09 16:00N 44°09' E 028°40'4 4.3
2018-Jun-09 15:00N 44°05' E 028°42'611.6
2018-Jun-09 14:30N 43°59' E 028°41'9 1.7
2018-Jun-09 08:59N 43°50' E 028°37'510.5
2018-Jun-09 08:30N 43°55' E 028°39'510.6
2018-Jun-09 08:00N 44°00' E 028°42'510.0
2018-Jun-09 07:30N 44°05' E 028°42'4 8.1
2018-Jun-09 06:59N 44°09' E 028°40'0 0.0
2018-Jun-09 06:29N 44°09' E 028°40'0 0.0
2018-Jun-09 05:59N 44°09' E 028°40'0 0.0
2018-Jun-09 05:29N 44°09' E 028°40'0 0.0
2018-Jun-09 04:59N 44°09' E 028°40'0 0.0
2018-Jun-09 04:29N 44°09' E 028°40'0 0.0
2018-Jun-09 03:59N 44°09' E 028°40'0 0.0
2018-Jun-09 03:29N 44°09' E 028°40'0 0.0
2018-Jun-09 02:59N 44°09' E 028°40'0 0.0
2018-Jun-09 02:29N 44°09' E 028°40'0 0.0
2018-Jun-09 01:59N 44°09' E 028°40'0 0.0
2018-Jun-09 01:29N 44°09' E 028°40'0 0.0
2018-Jun-09 00:59N 44°09' E 028°40'0 0.0
2018-Jun-09 00:29N 44°09' E 028°40'0 0.0
2018-Jun-08 23:59N 44°09' E 028°40'0 0.0
2018-Jun-08 23:29N 44°09' E 028°40'0 0.0
2018-Jun-08 22:59N 44°09' E 028°40'0 0.0
2018-Jun-08 22:29N 44°09' E 028°40'0 0.0
2018-Jun-08 22:00N 44°09' E 028°40'0 0.0
2018-Jun-08 21:29N 44°09' E 028°40'0 0.0
2018-Jun-08 20:53N 44°09' E 028°40'0 0.0
2018-Jun-08 20:29N 44°09' E 028°40'0 0.0
2018-Jun-08 19:59N 44°09' E 028°40'0 0.0
2018-Jun-08 19:29N 44°09' E 028°40'0 0.0
2018-Jun-08 18:59N 44°09' E 028°40'0 0.0
2018-Jun-08 18:29N 44°09' E 028°40'0 0.0
2018-Jun-08 17:59N 44°09' E 028°40'0 0.0
2018-Jun-08 17:29N 44°09' E 028°40'0 0.0
2018-Jun-08 16:59N 44°09' E 028°40'0 0.0
2018-Jun-08 16:29N 44°09' E 028°40'0 0.0
2018-Jun-08 15:59N 44°09' E 028°40'0 0.0
2018-Jun-08 15:29N 44°09' E 028°40'0 0.0
2018-Jun-08 14:59N 44°09' E 028°40'0 0.0
2018-Jun-08 14:29N 44°09' E 028°40'0 0.0
2018-Jun-08 13:59N 44°09' E 028°40'0 0.0
2018-Jun-08 13:29N 44°09' E 028°40'0 0.0
2018-Jun-08 12:59N 44°09' E 028°40'0 0.0
2018-Jun-08 12:29N 44°09' E 028°40'0 0.0
2018-Jun-08 11:59N 44°09' E 028°40'0 0.0
2018-Jun-08 11:29N 44°09' E 028°40'0 0.0
2018-Jun-08 10:59N 44°09' E 028°40'0 0.0
2018-Jun-08 10:29N 44°09' E 028°40'0 0.0
2018-Jun-08 09:59N 44°09' E 028°40'0 0.0
2018-Jun-08 09:29N 44°09' E 028°40'0 0.0
2018-Jun-08 08:59N 44°09' E 028°40'3 5.8
2018-Jun-08 08:30N 44°06' E 028°40'0 0.8
2018-Jun-08 07:57N 44°06' E 028°39'1 2.6
2018-Jun-08 07:30N 44°06' E 028°41'1 2.4
2018-Jun-08 07:00N 44°07' E 028°39'0 0.4
2018-Jun-08 06:28N 44°06' E 028°40'0 0.1
2018-Jun-08 06:00N 44°07' E 028°40'3 5.4
2018-Jun-08 05:30N 44°09' E 028°40'0 0.0
2018-Jun-08 05:00N 44°09' E 028°40'0 0.0
2018-Jun-08 04:30N 44°09' E 028°40'0 0.0
2018-Jun-08 04:00N 44°09' E 028°40'0 0.0
2018-Jun-08 03:30N 44°09' E 028°40'0 0.0
2018-Jun-08 03:00N 44°09' E 028°40'0 0.0
2018-Jun-08 02:30N 44°09' E 028°40'0 0.0
2018-Jun-08 02:00N 44°09' E 028°40'0 0.0
2018-Jun-08 01:30N 44°09' E 028°40'0 0.0
2018-Jun-08 01:00N 44°09' E 028°40'0 0.0
2018-Jun-08 00:30N 44°09' E 028°40'0 0.0
2018-Jun-08 00:00N 44°09' E 028°40'0 0.0
2018-Jun-07 23:30N 44°09' E 028°40'0 0.0
2018-Jun-07 23:00N 44°09' E 028°40'0 0.0
2018-Jun-07 22:30N 44°09' E 028°40'0 0.0
2018-Jun-07 22:00N 44°09' E 028°40'0 0.0
2018-Jun-07 21:30N 44°09' E 028°40'0 0.0
2018-Jun-07 21:00N 44°09' E 028°40'0 0.0
2018-Jun-07 20:30N 44°09' E 028°40'0 0.0
2018-Jun-07 20:00N 44°09' E 028°40'0 0.0
2018-Jun-07 19:30N 44°09' E 028°40'0 0.0
2018-Jun-07 19:00N 44°09' E 028°40'0 0.0
2018-Jun-07 18:30N 44°09' E 028°40'0 0.0
2018-Jun-07 18:00N 44°09' E 028°40'0 0.0
2018-Jun-07 17:30N 44°09' E 028°40'0 0.0
2018-Jun-07 17:00N 44°09' E 028°40'0 0.0
2018-Jun-07 16:30N 44°09' E 028°40'0 0.0
2018-Jun-07 16:00N 44°09' E 028°40'0 0.0
2018-Jun-07 15:30N 44°09' E 028°40'0 0.0
2018-Jun-07 15:00N 44°09' E 028°40'0 0.0
2018-Jun-07 14:30N 44°09' E 028°40'0 0.0
2018-Jun-07 14:00N 44°09' E 028°40'0 0.0
2018-Jun-07 13:30N 44°09' E 028°40'0 0.0
2018-Jun-07 13:00N 44°09' E 028°40'0 0.0
2018-Jun-07 12:30N 44°09' E 028°40'0 0.0
2018-Jun-07 12:00N 44°09' E 028°40'0 0.0
2018-Jun-07 11:30N 44°09' E 028°40'0 0.0
2018-Jun-07 10:57N 44°09' E 028°40'0 0.0
2018-Jun-07 10:30N 44°09' E 028°40'0 0.0
2018-Jun-07 10:00N 44°09' E 028°40'0 0.0
2018-Jun-07 09:30N 44°09' E 028°40'0 0.0
2018-Jun-07 09:00N 44°09' E 028°40'0 0.0
2018-Jun-07 08:30N 44°09' E 028°40'0 0.0
2018-Jun-07 08:00N 44°09' E 028°40'0 0.0
2018-Jun-07 07:30N 44°09' E 028°40'0 0.0
2018-Jun-07 07:00N 44°09' E 028°40'0 0.0
2018-Jun-07 06:30N 44°09' E 028°40'0 0.0
2018-Jun-07 06:00N 44°09' E 028°40'0 0.0
2018-Jun-07 05:30N 44°09' E 028°40'0 0.0
2018-Jun-07 05:00N 44°09' E 028°40'0 0.0
2018-Jun-07 04:30N 44°09' E 028°40'0 0.0
2018-Jun-07 04:00N 44°09' E 028°40'0 0.0
2018-Jun-07 03:30N 44°09' E 028°40'0 0.0
2018-Jun-07 03:00N 44°09' E 028°40'0 0.0
2018-Jun-07 02:30N 44°09' E 028°40'0 0.0
2018-Jun-07 02:00N 44°09' E 028°40'0 0.0
2018-Jun-07 01:30N 44°09' E 028°40'0 0.0
2018-Jun-07 01:00N 44°09' E 028°40'0 0.0
2018-Jun-07 00:30N 44°09' E 028°40'0 0.0
2018-Jun-07 00:00N 44°09' E 028°40'0 0.0
2018-Jun-06 23:30N 44°09' E 028°40'0 0.0
2018-Jun-06 23:00N 44°09' E 028°40'0 0.0
2018-Jun-06 22:30N 44°09' E 028°40'0 0.0
2018-Jun-06 22:00N 44°09' E 028°40'0 0.0
2018-Jun-06 21:30N 44°09' E 028°40'1 1.2
2018-Jun-06 21:00N 44°09' E 028°39'1 1.7
2018-Jun-06 20:30N 44°08' E 028°40'1 1.6
2018-Jun-06 20:00N 44°09' E 028°40'0 0.0
2018-Jun-06 19:30N 44°09' E 028°40'1 1.9
2018-Jun-06 18:55N 44°10' E 028°39'0 0.2
2018-Jun-06 18:30N 44°10' E 028°39'1 2.4
2018-Jun-06 18:00N 44°09' E 028°40'0 0.4
2018-Jun-06 17:28N 44°09' E 028°40'0 0.0
2018-Jun-06 16:58N 44°09' E 028°40'0 0.0
2018-Jun-06 16:28N 44°09' E 028°40'0 0.0
2018-Jun-06 15:58N 44°09' E 028°40'0 0.0
2018-Jun-06 15:28N 44°09' E 028°40'0 0.0
2018-Jun-06 14:58N 44°09' E 028°40'0 0.0
2018-Jun-06 14:28N 44°09' E 028°40'0 0.0
2018-Jun-06 13:55N 44°09' E 028°40'0 0.0
2018-Jun-06 13:25N 44°09' E 028°40'0 0.0
2018-Jun-06 12:58N 44°09' E 028°40'0 0.0
2018-Jun-06 12:28N 44°09' E 028°40'0 0.0
2018-Jun-06 11:58N 44°09' E 028°40'0 0.0
2018-Jun-06 11:28N 44°09' E 028°40'0 0.0
2018-Jun-06 10:58N 44°09' E 028°40'0 0.0
2018-Jun-06 10:28N 44°09' E 028°40'0 0.0
2018-Jun-06 09:58N 44°09' E 028°40'0 0.0
2018-Jun-06 09:28N 44°09' E 028°40'0 0.0
2018-Jun-06 08:55N 44°09' E 028°40'0 0.0
2018-Jun-06 08:28N 44°09' E 028°40'0 0.0
2018-Jun-06 07:58N 44°09' E 028°40'  
Track history (hours):
 
Tides and Currents Weather Stations Pressure Air Temp Water Temp Dewpoint Dewpoint Depression Visibility Wind Speed Wind Dir Waves Ship Positions

Canal Services 16

Last reported at 2018-Jun-16 07:41 UTC. Time now 2018-Jun-21 06:53 UTC.
Position N 44°09' E 028°40'.

Length 31 m.

Type: Tug. MMSI: 264900334.

Date/timePositionNaut miles runAvg speedWind from/ knotsBaromVisibWave heightAir tempDewpointWater temp
2018-Jun-16 07:41N 44°09' E 028°40'0 0.0
2018-Jun-16 07:29N 44°09' E 028°40'0 0.0
2018-Jun-16 06:59N 44°09' E 028°40'0 0.0
2018-Jun-16 06:29N 44°09' E 028°40'0 0.0
2018-Jun-16 05:59N 44°09' E 028°40'0 0.0
2018-Jun-16 05:29N 44°09' E 028°40'0 0.0
2018-Jun-16 04:59N 44°09' E 028°40'0 0.0
2018-Jun-16 04:29N 44°09' E 028°40'0 0.0
2018-Jun-16 03:59N 44°09' E 028°40'0 0.0
2018-Jun-16 03:29N 44°09' E 028°40'0 0.0
2018-Jun-16 02:59N 44°09' E 028°40'0 0.0
2018-Jun-16 02:29N 44°09' E 028°40'0 0.0
2018-Jun-16 01:59N 44°09' E 028°40'0 0.0
2018-Jun-16 01:29N 44°09' E 028°40'0 0.0
2018-Jun-16 00:59N 44°09' E 028°40'0 0.0
2018-Jun-16 00:29N 44°09' E 028°40'0 0.0
2018-Jun-15 23:56N 44°09' E 028°40'0 0.0
2018-Jun-15 23:29N 44°09' E 028°40'0 0.0
2018-Jun-15 22:59N 44°09' E 028°40'0 0.0
2018-Jun-15 22:29N 44°09' E 028°40'0 0.0
2018-Jun-15 21:59N 44°09' E 028°40'0 0.0
2018-Jun-15 21:29N 44°09' E 028°40'0 0.0
2018-Jun-15 20:59N 44°09' E 028°40'0 0.0
2018-Jun-15 20:29N 44°09' E 028°40'0 0.0
2018-Jun-15 19:59N 44°09' E 028°40'1 1.3
2018-Jun-15 19:30N 44°09' E 028°40'4 8.3
2018-Jun-15 19:00N 44°06' E 028°45'5 9.3
2018-Jun-15 18:30N 44°07' E 028°51'5 9.5
2018-Jun-15 17:56N 44°08' E 028°58'4 9.8
2018-Jun-15 17:30N 44°09' E 029°04'5 9.9
2018-Jun-15 17:00N 44°10' E 029°11'5 9.9
2018-Jun-15 16:30N 44°11' E 029°18'510.2
2018-Jun-15 15:59N 44°13' E 029°25'510.9
2018-Jun-15 15:30N 44°14' E 029°32'611.0
2018-Jun-15 15:00N 44°16' E 029°39'610.7
2018-Jun-15 14:27N 44°17' E 029°47'510.9
2018-Jun-15 14:00N 44°18' E 029°54'23 2.1
2018-Jun-15 02:57N 44°20' E 030°25'0 0.5
2018-Jun-15 02:30N 44°20' E 030°26'0 0.8
2018-Jun-15 02:00N 44°21' E 030°26'5 3.5
2018-Jun-15 00:31N 44°20' E 030°19'0 4.1
2018-Jun-15 00:29N 44°20' E 030°19'3 4.8
2018-Jun-14 23:49N 44°19' E 030°14'1 4.1
2018-Jun-14 23:28N 44°18' E 030°12'3 5.3
2018-Jun-14 22:58N 44°18' E 030°09'11 5.1
2018-Jun-14 20:44N 44°16' E 029°53'4 9.3
2018-Jun-14 20:16N 44°15' E 029°47'6 9.3
2018-Jun-14 19:38N 44°13' E 029°40'1 9.4
2018-Jun-14 19:30N 44°12' E 029°38'3735.2
2018-Jun-14 18:27N 44°06' E 028°47'613.1
2018-Jun-14 18:00N 44°09' E 028°40'0 0.0
2018-Jun-14 17:15N 44°09' E 028°40'0 0.0
2018-Jun-14 16:57N 44°09' E 028°40'0 0.0
2018-Jun-14 16:18N 44°09' E 028°40'0 0.0
2018-Jun-14 15:58N 44°09' E 028°40'0 0.0
2018-Jun-14 15:11N 44°09' E 028°40'0 0.0
2018-Jun-14 14:54N 44°09' E 028°40'0 0.0
2018-Jun-14 14:14N 44°09' E 028°40'0 0.0
2018-Jun-14 13:55N 44°09' E 028°40'0 0.0
2018-Jun-14 13:12N 44°09' E 028°40'0 0.0
2018-Jun-14 13:00N 44°09' E 028°40'0 0.0
2018-Jun-14 12:30N 44°09' E 028°40'0 0.0
2018-Jun-14 12:00N 44°09' E 028°40'0 0.0
2018-Jun-14 11:30N 44°09' E 028°40'0 0.0
2018-Jun-14 11:00N 44°09' E 028°40'0 0.0
2018-Jun-14 10:30N 44°09' E 028°40'0 0.0
2018-Jun-14 10:00N 44°09' E 028°40'0 0.0
2018-Jun-14 09:30N 44°09' E 028°40'0 0.0
2018-Jun-14 09:00N 44°09' E 028°40'0 0.0
2018-Jun-14 08:30N 44°09' E 028°40'0 0.0
2018-Jun-14 08:00N 44°09' E 028°40'0 0.0
2018-Jun-14 07:30N 44°09' E 028°40'0 0.0
2018-Jun-14 07:00N 44°09' E 028°40'0 0.0
2018-Jun-14 06:27N 44°09' E 028°40'0 0.0
2018-Jun-14 06:00N 44°09' E 028°40'0 0.0
2018-Jun-14 05:30N 44°09' E 028°40'0 0.0
2018-Jun-14 04:57N 44°09' E 028°40'0 0.0
2018-Jun-14 04:30N 44°09' E 028°40'0 0.0
2018-Jun-14 04:00N 44°09' E 028°40'0 0.0
2018-Jun-14 03:30N 44°09' E 028°40'0 0.0
2018-Jun-14 03:00N 44°09' E 028°40'0 0.0
2018-Jun-14 02:30N 44°09' E 028°40'0 0.0
2018-Jun-14 02:00N 44°09' E 028°40'0 0.0
2018-Jun-14 01:30N 44°09' E 028°40'0 0.0
2018-Jun-14 01:00N 44°09' E 028°40'0 0.1
2018-Jun-14 00:30N 44°09' E 028°40'1 1.9
2018-Jun-13 23:59N 44°09' E 028°39'1 1.2
2018-Jun-13 23:30N 44°09' E 028°40'0 0.8
2018-Jun-13 22:59N 44°09' E 028°40'0 0.0
2018-Jun-13 22:29N 44°09' E 028°40'0 0.0
2018-Jun-13 21:59N 44°09' E 028°40'0 0.0
2018-Jun-13 21:29N 44°09' E 028°40'0 0.0
2018-Jun-13 20:56N 44°09' E 028°40'0 0.0
2018-Jun-13 20:29N 44°09' E 028°40'0 0.0
2018-Jun-13 19:59N 44°09' E 028°40'0 0.0
2018-Jun-13 19:29N 44°09' E 028°40'0 0.0
2018-Jun-13 18:59N 44°09' E 028°40'0 0.0
2018-Jun-13 18:29N 44°09' E 028°40'0 0.0
2018-Jun-13 17:59N 44°09' E 028°40'0 0.0
2018-Jun-13 17:29N 44°09' E 028°40'0 0.0
2018-Jun-13 16:59N 44°09' E 028°40'0 0.0
2018-Jun-13 16:20N 44°09' E 028°40'1 2.4
2018-Jun-13 16:00N 44°10' E 028°39'0 0.4
2018-Jun-13 15:29N 44°10' E 028°39'1 1.6
2018-Jun-13 14:59N 44°09' E 028°40'0 0.0
2018-Jun-13 14:29N 44°09' E 028°40'0 0.0
2018-Jun-13 13:59N 44°09' E 028°40'0 0.0
2018-Jun-13 13:29N 44°09' E 028°40'0 0.0
2018-Jun-13 12:59N 44°09' E 028°40'0 0.0
2018-Jun-13 12:29N 44°09' E 028°40'0 0.0
2018-Jun-13 11:59N 44°09' E 028°40'0 1.0
2018-Jun-13 11:30N 44°09' E 028°40'0 0.5
2018-Jun-13 11:00N 44°09' E 028°39'2 3.2
2018-Jun-13 10:30N 44°08' E 028°40'1 2.0
2018-Jun-13 09:59N 44°09' E 028°40'0 0.0
2018-Jun-13 09:29N 44°09' E 028°40'0 0.0
2018-Jun-13 08:59N 44°09' E 028°40'0 0.0
2018-Jun-13 08:29N 44°09' E 028°40'0 0.0
2018-Jun-13 07:59N 44°09' E 028°40'0 0.0
2018-Jun-13 07:29N 44°09' E 028°40'0 0.0
2018-Jun-13 06:59N 44°09' E 028°40'0 0.0
2018-Jun-13 06:29N 44°09' E 028°40'0 0.0
2018-Jun-13 05:44N 44°09' E 028°40'0 0.0
2018-Jun-13 05:14N 44°09' E 028°40'0 0.0
2018-Jun-13 04:59N 44°09' E 028°40'0 0.0
2018-Jun-13 04:29N 44°09' E 028°40'0 0.0
2018-Jun-13 03:59N 44°09' E 028°40'0 0.0
2018-Jun-13 03:29N 44°09' E 028°40'0 0.0
2018-Jun-13 02:59N 44°09' E 028°40'0 0.0
2018-Jun-13 02:29N 44°09' E 028°40'0 0.0
2018-Jun-13 01:59N 44°09' E 028°40'0 0.0
2018-Jun-13 01:26N 44°09' E 028°40'0 0.0
2018-Jun-13 00:59N 44°09' E 028°40'0 0.0
2018-Jun-13 00:29N 44°09' E 028°40'0 0.0
2018-Jun-12 23:59N 44°09' E 028°40'0 0.0
2018-Jun-12 23:29N 44°09' E 028°40'0 0.0
2018-Jun-12 22:59N 44°09' E 028°40'0 0.0
2018-Jun-12 22:29N 44°09' E 028°40'0 0.0
2018-Jun-12 21:59N 44°09' E 028°40'0 0.0
2018-Jun-12 21:29N 44°09' E 028°40'0 0.0
2018-Jun-12 20:59N 44°09' E 028°40'0 0.0
2018-Jun-12 20:29N 44°09' E 028°40'0 0.0
2018-Jun-12 19:59N 44°09' E 028°40'0 0.0
2018-Jun-12 19:29N 44°09' E 028°40'0 0.0
2018-Jun-12 18:59N 44°09' E 028°40'0 0.0
2018-Jun-12 18:29N 44°09' E 028°40'0 0.0
2018-Jun-12 17:50N 44°09' E 028°40'0 0.0
2018-Jun-12 17:14N 44°09' E 028°40'1 3.2
2018-Jun-12 16:55N 44°09' E 028°39'0 0.4
2018-Jun-12 16:29N 44°09' E 028°39'1 1.8
2018-Jun-12 16:00N 44°09' E 028°40'0 0.9
2018-Jun-12 15:28N 44°09' E 028°40'0 0.0
2018-Jun-12 14:58N 44°09' E 028°40'0 0.0
2018-Jun-12 14:28N 44°09' E 028°40'0 0.0
2018-Jun-12 13:58N 44°09' E 028°40'0 0.0
2018-Jun-12 13:25N 44°09' E 028°40'0 0.0
2018-Jun-12 12:52N 44°09' E 028°40'0 0.0
2018-Jun-12 12:25N 44°09' E 028°40'0 0.0
2018-Jun-12 11:58N 44°09' E 028°40'0 0.0
2018-Jun-12 11:28N 44°09' E 028°40'0 0.0
2018-Jun-12 10:58N 44°09' E 028°40'0 0.0
2018-Jun-12 10:28N 44°09' E 028°40'0 0.0
2018-Jun-12 09:58N 44°09' E 028°40'0 0.0
2018-Jun-12 09:25N 44°09' E 028°40'0 0.0
2018-Jun-12 08:55N 44°09' E 028°40'0 0.0
2018-Jun-12 08:28N 44°09' E 028°40'0 0.0
2018-Jun-12 07:58N 44°09' E 028°40'0 0.0
2018-Jun-12 07:28N 44°09' E 028°40'3 5.9
2018-Jun-12 07:00N 44°07' E 028°40'1 1.8
2018-Jun-12 06:28N 44°07' E 028°39'0 0.0
2018-Jun-12 05:58N 44°07' E 028°39'2 3.7
2018-Jun-12 05:30N 44°08' E 028°41'2 3.5
2018-Jun-12 04:59N 44°09' E 028°40'0 0.0
2018-Jun-12 04:29N 44°09' E 028°40'0 0.0
2018-Jun-12 03:59N 44°09' E 028°40'0 0.0
2018-Jun-12 03:29N 44°09' E 028°40'0 0.0
2018-Jun-12 02:59N 44°09' E 028°40'0 0.0
2018-Jun-12 02:26N 44°09' E 028°40'0 0.0
2018-Jun-12 01:59N 44°09' E 028°40'0 0.0
2018-Jun-12 01:26N 44°09' E 028°40'0 0.0
2018-Jun-12 01:00N 44°09' E 028°40'0 0.0
2018-Jun-12 00:29N 44°09' E 028°40'0 0.0
2018-Jun-11 23:59N 44°09' E 028°40'0 0.0
2018-Jun-11 23:29N 44°09' E 028°40'0 0.0
2018-Jun-11 22:59N 44°09' E 028°40'0 0.0
2018-Jun-11 22:29N 44°09' E 028°40'0 0.0
2018-Jun-11 21:59N 44°09' E 028°40'0 0.0
2018-Jun-11 21:23N 44°09' E 028°40'0 0.0
2018-Jun-11 21:00N 44°09' E 028°40'0 0.0
2018-Jun-11 20:29N 44°09' E 028°40'0 0.0
2018-Jun-11 19:59N 44°09' E 028°40'0 0.0
2018-Jun-11 19:29N 44°09' E 028°40'0 0.0
2018-Jun-11 18:59N 44°09' E 028°40'1 1.1
2018-Jun-11 18:27N 44°09' E 028°40'0 0.1
2018-Jun-11 18:00N 44°09' E 028°40'1 1.2
2018-Jun-11 17:30N 44°09' E 028°40'0 0.0
2018-Jun-11 17:00N 44°09' E 028°40'0 0.0
2018-Jun-11 16:30N 44°09' E 028°40'0 0.0
2018-Jun-11 16:00N 44°09' E 028°40'0 0.0
2018-Jun-11 15:30N 44°09' E 028°40'0 0.0
2018-Jun-11 15:00N 44°09' E 028°40'0 0.0
2018-Jun-11 14:24N 44°09' E 028°40'0 0.0
2018-Jun-11 14:00N 44°09' E 028°40'0 0.0
2018-Jun-11 13:30N 44°09' E 028°40'0 0.0
2018-Jun-11 13:00N 44°09' E 028°40'0 0.0
2018-Jun-11 12:30N 44°09' E 028°40'0 0.0
2018-Jun-11 11:57N 44°09' E 028°40'0 0.0
2018-Jun-11 11:30N 44°09' E 028°40'0 0.0
2018-Jun-11 11:00N 44°09' E 028°40'0 0.0
2018-Jun-11 10:30N 44°09' E 028°40'0 0.0
2018-Jun-11 10:00N 44°09' E 028°40'0 0.0
2018-Jun-11 09:30N 44°09' E 028°40'0 0.0
2018-Jun-11 09:00N 44°09' E 028°40'0 0.0
2018-Jun-11 08:27N 44°09' E 028°40'0 0.0
2018-Jun-11 08:00N 44°09' E 028°40'0 0.0
2018-Jun-11 07:30N 44°09' E 028°40'0 0.0
2018-Jun-11 07:00N 44°09' E 028°40'0 0.0
2018-Jun-11 06:30N 44°09' E 028°40'0 0.0
2018-Jun-11 06:00N 44°09' E 028°40'0 0.0
2018-Jun-11 05:30N 44°09' E 028°40'0 0.0
2018-Jun-11 05:00N 44°09' E 028°40'0 0.0
2018-Jun-11 04:30N 44°09' E 028°40'0 0.0
2018-Jun-11 04:00N 44°09' E 028°40'0 0.0
2018-Jun-11 03:30N 44°09' E 028°40'0 0.0
2018-Jun-11 03:00N 44°09' E 028°40'0 0.0
2018-Jun-11 02:30N 44°09' E 028°40'0 0.0
2018-Jun-11 02:00N 44°09' E 028°40'0 0.0
2018-Jun-11 01:30N 44°09' E 028°40'0 0.0
2018-Jun-11 01:00N 44°09' E 028°40'0 0.0
2018-Jun-11 00:27N 44°09' E 028°40'0 0.0
2018-Jun-11 00:00N 44°09' E 028°40'0 0.0
2018-Jun-10 23:30N 44°09' E 028°40'0 0.0
2018-Jun-10 23:00N 44°09' E 028°40'0 0.0
2018-Jun-10 22:30N 44°09' E 028°40'0 0.0
2018-Jun-10 22:00N 44°09' E 028°40'0 0.0
2018-Jun-10 21:27N 44°09' E 028°40'0 0.0
2018-Jun-10 21:00N 44°09' E 028°40'0 0.0
2018-Jun-10 20:30N 44°09' E 028°40'0 0.0
2018-Jun-10 20:00N 44°09' E 028°40'0 0.0
2018-Jun-10 19:30N 44°09' E 028°40'0 0.0
2018-Jun-10 19:00N 44°09' E 028°40'0 0.0
2018-Jun-10 18:30N 44°09' E 028°40'0 0.0
2018-Jun-10 18:00N 44°09' E 028°40'0 0.0
2018-Jun-10 17:30N 44°09' E 028°40'0 0.0
2018-Jun-10 17:00N 44°09' E 028°40'0 0.0
2018-Jun-10 16:30N 44°09' E 028°40'0 0.0
2018-Jun-10 16:00N 44°09' E 028°40'0 0.0
2018-Jun-10 15:30N 44°09' E 028°40'0 0.0
2018-Jun-10 14:57N 44°09' E 028°40'0 0.0
2018-Jun-10 14:30N 44°09' E 028°40'0 0.0
2018-Jun-10 13:30N 44°09' E 028°40'0 0.0
2018-Jun-10 12:57N 44°09' E 028°40'0 0.0
2018-Jun-10 12:21N 44°09' E 028°40'0 0.0
2018-Jun-10 12:00N 44°09' E 028°40'0 0.0
2018-Jun-10 11:24N 44°09' E 028°40'0 0.0
2018-Jun-10 10:57N 44°09' E 028°40'0 0.0
2018-Jun-10 10:27N 44°09' E 028°40'0 0.0
2018-Jun-10 10:00N 44°09' E 028°40'0 0.0
2018-Jun-10 09:30N 44°09' E 028°40'0 0.0
2018-Jun-10 09:00N 44°09' E 028°40'0 0.0
2018-Jun-10 08:30N 44°09' E 028°40'0 0.0
2018-Jun-10 08:00N 44°09' E 028°40'0 0.0
2018-Jun-10 07:30N 44°09' E 028°40'0 0.0
2018-Jun-10 07:00N 44°09' E 028°40'0 0.0
2018-Jun-10 06:30N 44°09' E 028°40'0 0.0
2018-Jun-10 06:00N 44°09' E 028°40'0 0.8
2018-Jun-10 05:30N 44°09' E 028°40'0 0.3
2018-Jun-10 04:59N 44°09' E 028°40'0 0.1
2018-Jun-10 04:29N 44°09' E 028°40'0 0.8
2018-Jun-10 03:59N 44°08' E 028°40'1 1.0
2018-Jun-10 03:29N 44°08' E 028°41'0 0.2
2018-Jun-10 03:00N 44°08' E 028°41'1 2.6
2018-Jun-10 02:30N 44°09' E 028°40'0 0.0
2018-Jun-10 02:00N 44°09' E 028°40'0 0.0
2018-Jun-10 01:30N 44°09' E 028°40'0 0.0
2018-Jun-10 01:00N 44°09' E 028°40'0 0.0
2018-Jun-10 00:30N 44°09' E 028°40'0 0.0
2018-Jun-10 00:00N 44°09' E 028°40'0 0.0
2018-Jun-09 23:30N 44°09' E 028°40'0 0.0
2018-Jun-09 23:00N 44°09' E 028°40'0 0.0
2018-Jun-09 22:30N 44°09' E 028°40'0 0.0
2018-Jun-09 22:00N 44°09' E 028°40'0 0.0
2018-Jun-09 21:30N 44°09' E 028°40'0 0.0
2018-Jun-09 21:00N 44°09' E 028°40'0 0.0
2018-Jun-09 20:30N 44°09' E 028°40'0 0.0
2018-Jun-09 20:00N 44°09' E 028°40'0 0.0
2018-Jun-09 19:30N 44°09' E 028°40'0 0.0
2018-Jun-09 19:00N 44°09' E 028°40'0 0.0
2018-Jun-09 18:30N 44°09' E 028°40'0 0.0
2018-Jun-09 18:00N 44°09' E 028°40'0 0.0
2018-Jun-09 17:30N 44°09' E 028°40'0 0.0
2018-Jun-09 17:00N 44°09' E 028°40'0 0.0
2018-Jun-09 16:27N 44°09' E 028°40'0 0.0
2018-Jun-09 16:00N 44°09' E 028°40'4 4.3
2018-Jun-09 15:00N 44°05' E 028°42'611.6
2018-Jun-09 14:30N 43°59' E 028°41'9 1.7
2018-Jun-09 08:59N 43°50' E 028°37'510.5
2018-Jun-09 08:30N 43°55' E 028°39'510.6
2018-Jun-09 08:00N 44°00' E 028°42'510.0
2018-Jun-09 07:30N 44°05' E 028°42'4 8.1
2018-Jun-09 06:59N 44°09' E 028°40'0 0.0
2018-Jun-09 06:29N 44°09' E 028°40'0 0.0
2018-Jun-09 05:59N 44°09' E 028°40'0 0.0
2018-Jun-09 05:29N 44°09' E 028°40'0 0.0
2018-Jun-09 04:59N 44°09' E 028°40'0 0.0
2018-Jun-09 04:29N 44°09' E 028°40'0 0.0
2018-Jun-09 03:59N 44°09' E 028°40'0 0.0
2018-Jun-09 03:29N 44°09' E 028°40'0 0.0
2018-Jun-09 02:59N 44°09' E 028°40'0 0.0
2018-Jun-09 02:29N 44°09' E 028°40'0 0.0
2018-Jun-09 01:59N 44°09' E 028°40'0 0.0
2018-Jun-09 01:29N 44°09' E 028°40'0 0.0
2018-Jun-09 00:59N 44°09' E 028°40'0 0.0
2018-Jun-09 00:29N 44°09' E 028°40'0 0.0
2018-Jun-08 23:59N 44°09' E 028°40'0 0.0
2018-Jun-08 23:29N 44°09' E 028°40'0 0.0
2018-Jun-08 22:59N 44°09' E 028°40'0 0.0
2018-Jun-08 22:29N 44°09' E 028°40'0 0.0
2018-Jun-08 22:00N 44°09' E 028°40'0 0.0
2018-Jun-08 21:29N 44°09' E 028°40'0 0.0
2018-Jun-08 20:53N 44°09' E 028°40'0 0.0
2018-Jun-08 20:29N 44°09' E 028°40'0 0.0
2018-Jun-08 19:59N 44°09' E 028°40'0 0.0
2018-Jun-08 19:29N 44°09' E 028°40'0 0.0
2018-Jun-08 18:59N 44°09' E 028°40'0 0.0
2018-Jun-08 18:29N 44°09' E 028°40'0 0.0
2018-Jun-08 17:59N 44°09' E 028°40'0 0.0
2018-Jun-08 17:29N 44°09' E 028°40'0 0.0
2018-Jun-08 16:59N 44°09' E 028°40'0 0.0
2018-Jun-08 16:29N 44°09' E 028°40'0 0.0
2018-Jun-08 15:59N 44°09' E 028°40'0 0.0
2018-Jun-08 15:29N 44°09' E 028°40'0 0.0
2018-Jun-08 14:59N 44°09' E 028°40'0 0.0
2018-Jun-08 14:29N 44°09' E 028°40'0 0.0
2018-Jun-08 13:59N 44°09' E 028°40'0 0.0
2018-Jun-08 13:29N 44°09' E 028°40'0 0.0
2018-Jun-08 12:59N 44°09' E 028°40'0 0.0
2018-Jun-08 12:29N 44°09' E 028°40'0 0.0
2018-Jun-08 11:59N 44°09' E 028°40'0 0.0
2018-Jun-08 11:29N 44°09' E 028°40'0 0.0
2018-Jun-08 10:59N 44°09' E 028°40'0 0.0
2018-Jun-08 10:29N 44°09' E 028°40'0 0.0
2018-Jun-08 09:59N 44°09' E 028°40'0 0.0
2018-Jun-08 09:29N 44°09' E 028°40'0 0.0
2018-Jun-08 08:59N 44°09' E 028°40'3 5.8
2018-Jun-08 08:30N 44°06' E 028°40'0 0.8
2018-Jun-08 07:57N 44°06' E 028°39'1 2.6
2018-Jun-08 07:30N 44°06' E 028°41'1 2.4
2018-Jun-08 07:00N 44°07' E 028°39'0 0.4
2018-Jun-08 06:28N 44°06' E 028°40'0 0.1
2018-Jun-08 06:00N 44°07' E 028°40'3 5.4
2018-Jun-08 05:30N 44°09' E 028°40'0 0.0
2018-Jun-08 05:00N 44°09' E 028°40'0 0.0
2018-Jun-08 04:30N 44°09' E 028°40'0 0.0
2018-Jun-08 04:00N 44°09' E 028°40'0 0.0
2018-Jun-08 03:30N 44°09' E 028°40'0 0.0
2018-Jun-08 03:00N 44°09' E 028°40'0 0.0
2018-Jun-08 02:30N 44°09' E 028°40'0 0.0
2018-Jun-08 02:00N 44°09' E 028°40'0 0.0
2018-Jun-08 01:30N 44°09' E 028°40'0 0.0
2018-Jun-08 01:00N 44°09' E 028°40'0 0.0
2018-Jun-08 00:30N 44°09' E 028°40'0 0.0
2018-Jun-08 00:00N 44°09' E 028°40'0 0.0
2018-Jun-07 23:30N 44°09' E 028°40'0 0.0
2018-Jun-07 23:00N 44°09' E 028°40'0 0.0
2018-Jun-07 22:30N 44°09' E 028°40'0 0.0
2018-Jun-07 22:00N 44°09' E 028°40'0 0.0
2018-Jun-07 21:30N 44°09' E 028°40'0 0.0
2018-Jun-07 21:00N 44°09' E 028°40'0 0.0
2018-Jun-07 20:30N 44°09' E 028°40'0 0.0
2018-Jun-07 20:00N 44°09' E 028°40'0 0.0
2018-Jun-07 19:30N 44°09' E 028°40'0 0.0
2018-Jun-07 19:00N 44°09' E 028°40'0 0.0
2018-Jun-07 18:30N 44°09' E 028°40'0 0.0
2018-Jun-07 18:00N 44°09' E 028°40'0 0.0
2018-Jun-07 17:30N 44°09' E 028°40'0 0.0
2018-Jun-07 17:00N 44°09' E 028°40'0 0.0
2018-Jun-07 16:30N 44°09' E 028°40'0 0.0
2018-Jun-07 16:00N 44°09' E 028°40'0 0.0
2018-Jun-07 15:30N 44°09' E 028°40'0 0.0
2018-Jun-07 15:00N 44°09' E 028°40'0 0.0
2018-Jun-07 14:30N 44°09' E 028°40'0 0.0
2018-Jun-07 14:00N 44°09' E 028°40'0 0.0
2018-Jun-07 13:30N 44°09' E 028°40'0 0.0
2018-Jun-07 13:00N 44°09' E 028°40'0 0.0
2018-Jun-07 12:30N 44°09' E 028°40'0 0.0
2018-Jun-07 12:00N 44°09' E 028°40'0 0.0
2018-Jun-07 11:30N 44°09' E 028°40'0 0.0
2018-Jun-07 10:57N 44°09' E 028°40'0 0.0
2018-Jun-07 10:30N 44°09' E 028°40'0 0.0
2018-Jun-07 10:00N 44°09' E 028°40'0 0.0
2018-Jun-07 09:30N 44°09' E 028°40'0 0.0
2018-Jun-07 09:00N 44°09' E 028°40'0 0.0
2018-Jun-07 08:30N 44°09' E 028°40'0 0.0
2018-Jun-07 08:00N 44°09' E 028°40'0 0.0
2018-Jun-07 07:30N 44°09' E 028°40'0 0.0
2018-Jun-07 07:00N 44°09' E 028°40'0 0.0
2018-Jun-07 06:30N 44°09' E 028°40'0 0.0
2018-Jun-07 06:00N 44°09' E 028°40'0 0.0
2018-Jun-07 05:30N 44°09' E 028°40'0 0.0
2018-Jun-07 05:00N 44°09' E 028°40'0 0.0
2018-Jun-07 04:30N 44°09' E 028°40'0 0.0
2018-Jun-07 04:00N 44°09' E 028°40'0 0.0
2018-Jun-07 03:30N 44°09' E 028°40'0 0.0
2018-Jun-07 03:00N 44°09' E 028°40'0 0.0
2018-Jun-07 02:30N 44°09' E 028°40'0 0.0
2018-Jun-07 02:00N 44°09' E 028°40'0 0.0
2018-Jun-07 01:30N 44°09' E 028°40'0 0.0
2018-Jun-07 01:00N 44°09' E 028°40'0 0.0
2018-Jun-07 00:30N 44°09' E 028°40'0 0.0
2018-Jun-07 00:00N 44°09' E 028°40'0 0.0
2018-Jun-06 23:30N 44°09' E 028°40'0 0.0
2018-Jun-06 23:00N 44°09' E 028°40'0 0.0
2018-Jun-06 22:30N 44°09' E 028°40'0 0.0
2018-Jun-06 22:00N 44°09' E 028°40'0 0.0
2018-Jun-06 21:30N 44°09' E 028°40'1 1.2
2018-Jun-06 21:00N 44°09' E 028°39'1 1.7
2018-Jun-06 20:30N 44°08' E 028°40'1 1.6
2018-Jun-06 20:00N 44°09' E 028°40'0 0.0
2018-Jun-06 19:30N 44°09' E 028°40'1 1.9
2018-Jun-06 18:55N 44°10' E 028°39'0 0.2
2018-Jun-06 18:30N 44°10' E 028°39'1 2.4
2018-Jun-06 18:00N 44°09' E 028°40'0 0.4
2018-Jun-06 17:28N 44°09' E 028°40'0 0.0
2018-Jun-06 16:58N 44°09' E 028°40'0 0.0
2018-Jun-06 16:28N 44°09' E 028°40'0 0.0
2018-Jun-06 15:58N 44°09' E 028°40'0 0.0
2018-Jun-06 15:28N 44°09' E 028°40'0 0.0
2018-Jun-06 14:58N 44°09' E 028°40'0 0.0
2018-Jun-06 14:28N 44°09' E 028°40'0 0.0
2018-Jun-06 13:55N 44°09' E 028°40'0 0.0
2018-Jun-06 13:25N 44°09' E 028°40'0 0.0
2018-Jun-06 12:58N 44°09' E 028°40'0 0.0
2018-Jun-06 12:28N 44°09' E 028°40'0 0.0
2018-Jun-06 11:58N 44°09' E 028°40'0 0.0
2018-Jun-06 11:28N 44°09' E 028°40'0 0.0
2018-Jun-06 10:58N 44°09' E 028°40'0 0.0
2018-Jun-06 10:28N 44°09' E 028°40'0 0.0
2018-Jun-06 09:58N 44°09' E 028°40'0 0.0
2018-Jun-06 09:28N 44°09' E 028°40'0 0.0
2018-Jun-06 08:55N 44°09' E 028°40'0 0.0
2018-Jun-06 08:28N 44°09' E 028°40'0 0.0
2018-Jun-06 07:58N 44°09' E 028°40'  

Dump ship's entire track history